createdAt,value
2019-05-18T00:01:09.651Z,12.00
2019-05-18T00:03:36.180Z,12.10
2019-05-18T00:06:02.971Z,12.30
2019-05-18T00:08:29.465Z,12.50
2019-05-18T00:10:56.088Z,12.60
2019-05-18T00:13:22.711Z,12.60
2019-05-18T00:15:49.367Z,12.60
2019-05-18T00:18:15.985Z,12.70
2019-05-18T00:20:42.669Z,12.70
2019-05-18T00:23:09.267Z,12.70
2019-05-18T00:25:35.883Z,12.60
2019-05-18T00:28:02.649Z,12.50
2019-05-18T00:30:29.308Z,12.30
2019-05-18T00:32:55.843Z,12.10
2019-05-18T00:35:22.095Z,12.10
2019-05-18T00:37:48.688Z,12.30
2019-05-18T00:40:15.537Z,12.60
2019-05-18T00:42:41.948Z,12.70
2019-05-18T00:45:10.014Z,12.70
2019-05-18T00:47:41.310Z,12.80
2019-05-18T00:50:05.415Z,12.80
2019-05-18T00:52:31.872Z,12.80
2019-05-18T00:54:58.411Z,12.80
2019-05-18T00:57:25.071Z,12.90
2019-05-18T00:59:51.693Z,13.00
2019-05-18T01:02:18.548Z,13.00
2019-05-18T01:04:44.971Z,12.90
2019-05-18T01:07:11.641Z,12.70
2019-05-18T01:09:38.011Z,12.40
2019-05-18T01:12:04.576Z,12.30
2019-05-18T01:14:31.176Z,12.20
2019-05-18T01:16:57.766Z,12.20
2019-05-18T01:19:24.513Z,12.30
2019-05-18T01:21:51.035Z,12.10
2019-05-18T01:24:17.885Z,12.10
2019-05-18T01:26:44.336Z,12.20
2019-05-18T01:29:10.937Z,11.90
2019-05-18T01:31:37.253Z,11.70
2019-05-18T01:34:03.694Z,11.50
2019-05-18T01:36:30.145Z,11.80
2019-05-18T01:38:56.708Z,11.90
2019-05-18T01:41:23.353Z,12.20
2019-05-18T01:43:50.276Z,12.40
2019-05-18T01:46:16.594Z,12.60
2019-05-18T01:48:43.278Z,12.50
2019-05-18T01:51:09.869Z,12.30
2019-05-18T01:53:36.511Z,12.20
2019-05-18T01:56:03.272Z,12.20
2019-05-18T01:58:29.782Z,12.30
2019-05-18T02:00:56.475Z,12.40
2019-05-18T02:03:25.948Z,12.40
2019-05-18T02:05:51.259Z,12.10
2019-05-18T02:08:17.581Z,12.00
2019-05-18T02:10:44.311Z,12.00
2019-05-18T02:13:10.895Z,12.00
2019-05-18T02:15:37.513Z,11.70
2019-05-18T02:18:04.256Z,11.70
2019-05-18T02:20:30.804Z,11.40
2019-05-18T02:22:57.635Z,11.50
2019-05-18T02:25:24.040Z,11.60
2019-05-18T02:27:50.749Z,11.50
2019-05-18T02:30:18.602Z,11.20
2019-05-18T02:32:45.196Z,11.20
2019-05-18T02:35:11.656Z,11.40
2019-05-18T02:37:38.084Z,11.50
2019-05-18T02:40:07.842Z,11.30
2019-05-18T02:42:34.194Z,10.90
2019-05-18T02:45:00.982Z,10.80
2019-05-18T02:47:27.481Z,10.70
2019-05-18T02:49:53.729Z,10.80
2019-05-18T02:52:20.369Z,10.90
2019-05-18T02:54:46.990Z,10.80
2019-05-18T02:57:13.761Z,10.90
2019-05-18T02:59:40.276Z,11.00
2019-05-18T03:02:06.905Z,11.00
2019-05-18T03:04:33.559Z,10.70
2019-05-18T03:07:00.375Z,10.70
2019-05-18T03:09:26.852Z,10.90
2019-05-18T03:11:53.541Z,10.90
2019-05-18T03:14:20.216Z,10.70
2019-05-18T03:16:46.943Z,10.50
2019-05-18T03:19:13.380Z,10.50
2019-05-18T03:21:40.225Z,10.50
2019-05-18T03:24:06.664Z,10.70
2019-05-18T03:26:33.353Z,10.80
2019-05-18T03:28:59.917Z,10.60
2019-05-18T03:31:26.627Z,10.70
2019-05-18T03:33:53.226Z,10.90
2019-05-18T03:36:19.456Z,10.80
2019-05-18T03:38:46.088Z,10.70
2019-05-18T03:41:12.435Z,10.50
2019-05-18T03:43:38.972Z,10.40
2019-05-18T03:46:05.582Z,10.40
2019-05-18T03:48:32.222Z,10.50
2019-05-18T03:50:58.507Z,10.80
2019-05-18T03:53:25.104Z,10.50
2019-05-18T03:55:51.752Z,10.70
2019-05-18T03:58:18.360Z,10.70
2019-05-18T04:00:45.024Z,10.70
2019-05-18T04:03:11.646Z,10.80
2019-05-18T04:05:38.341Z,10.80
2019-05-18T04:08:04.963Z,10.80
2019-05-18T04:10:31.212Z,10.80
2019-05-18T04:12:57.480Z,10.60
2019-05-18T04:15:23.751Z,10.30
2019-05-18T04:17:50.062Z,10.20
2019-05-18T04:20:16.746Z,10.20
2019-05-18T04:22:43.879Z,10.60
2019-05-18T04:25:10.384Z,10.70
2019-05-18T04:27:36.792Z,10.80
2019-05-18T04:30:08.022Z,10.90
2019-05-18T04:32:34.314Z,11.00
2019-05-18T04:35:00.838Z,11.10
2019-05-18T04:37:27.441Z,11.20
2019-05-18T04:39:53.732Z,11.00
2019-05-18T04:42:20.531Z,10.90
2019-05-18T04:44:46.723Z,10.90
2019-05-18T04:47:13.034Z,10.90
2019-05-18T04:49:39.312Z,11.10
2019-05-18T04:52:05.629Z,11.40
2019-05-18T04:54:32.276Z,11.80
2019-05-18T04:56:58.983Z,12.00
2019-05-18T04:59:25.966Z,11.90
2019-05-18T05:01:52.283Z,11.50
2019-05-18T05:04:18.823Z,11.20
2019-05-18T05:06:45.056Z,11.40
2019-05-18T05:09:11.724Z,11.60
2019-05-18T05:11:38.359Z,11.80
2019-05-18T05:14:05.199Z,11.60
2019-05-18T05:16:31.653Z,11.70
2019-05-18T05:18:57.970Z,11.70
2019-05-18T05:21:24.478Z,11.30
2019-05-18T05:23:51.123Z,11.30
2019-05-18T05:26:17.785Z,11.30
2019-05-18T05:28:45.324Z,11.40
2019-05-18T05:31:11.912Z,11.60
2019-05-18T05:33:38.543Z,11.80
2019-05-18T05:36:04.795Z,12.10
2019-05-18T05:38:31.379Z,12.50
2019-05-18T05:40:58.053Z,12.50
2019-05-18T05:43:24.775Z,12.70
2019-05-18T05:45:51.020Z,12.80
2019-05-18T05:48:17.556Z,12.80
2019-05-18T05:50:44.143Z,13.10
2019-05-18T05:53:10.808Z,13.30
2019-05-18T05:55:37.058Z,13.80
2019-05-18T05:58:03.661Z,13.60
2019-05-18T06:00:30.350Z,12.90
2019-05-18T06:02:57.426Z,13.20
2019-05-18T06:05:24.113Z,13.00
2019-05-18T06:07:50.617Z,12.90
2019-05-18T06:10:17.254Z,12.80
2019-05-18T06:12:43.922Z,12.40
2019-05-18T06:15:10.835Z,12.60
2019-05-18T06:17:37.280Z,12.80
2019-05-18T06:20:05.712Z,12.40
2019-05-18T06:22:32.315Z,11.90
2019-05-18T06:24:58.720Z,12.00
2019-05-18T06:27:25.408Z,11.80
2019-05-18T06:29:52.011Z,11.80
2019-05-18T06:32:18.700Z,12.30
2019-05-18T06:34:44.992Z,12.50
2019-05-18T06:37:11.225Z,12.50
2019-05-18T06:39:37.778Z,12.00
2019-05-18T06:42:04.360Z,12.10
2019-05-18T06:44:31.040Z,12.40
2019-05-18T06:46:57.697Z,13.00
2019-05-18T06:49:24.309Z,13.00
2019-05-18T06:51:50.960Z,13.10
2019-05-18T06:54:17.560Z,12.70
2019-05-18T06:56:45.253Z,12.50
2019-05-18T06:59:16.210Z,12.20
2019-05-18T07:01:41.877Z,12.40
2019-05-18T07:04:09.459Z,12.30
2019-05-18T07:06:36.105Z,12.00
2019-05-18T07:09:11.731Z,11.80
2019-05-18T07:11:33.963Z,11.80
2019-05-18T07:14:00.540Z,12.20
2019-05-18T07:16:27.148Z,12.10
2019-05-18T07:18:53.800Z,11.90
2019-05-18T07:21:22.568Z,12.10
2019-05-18T07:23:48.751Z,12.40
2019-05-18T07:26:15.459Z,12.70
2019-05-18T07:28:41.980Z,13.10
2019-05-18T07:31:08.363Z,14.10
2019-05-18T07:33:34.982Z,14.20
2019-05-18T07:36:01.228Z,14.50
2019-05-18T07:38:27.486Z,15.40
2019-05-18T07:40:54.331Z,15.90
2019-05-18T07:43:20.696Z,16.50
2019-05-18T07:45:46.931Z,17.30
2019-05-18T07:48:13.589Z,16.80
2019-05-18T07:50:40.093Z,16.30
2019-05-18T07:53:06.756Z,15.60
2019-05-18T07:55:33.104Z,15.40
2019-05-18T07:57:59.416Z,15.60
2019-05-18T08:00:25.859Z,15.80
2019-05-18T08:02:52.564Z,16.10
2019-05-18T08:05:19.237Z,16.00
2019-05-18T08:07:45.464Z,15.80
2019-05-18T08:10:13.118Z,16.00
2019-05-18T08:12:40.033Z,16.60
2019-05-18T08:15:10.054Z,16.20
2019-05-18T08:17:36.424Z,16.90
2019-05-18T08:20:06.157Z,17.70
2019-05-18T08:22:32.539Z,18.50
2019-05-18T08:24:58.790Z,18.50
2019-05-18T08:27:25.060Z,18.20
2019-05-18T08:29:51.307Z,17.10
2019-05-18T08:32:17.627Z,17.10
2019-05-18T08:34:44.042Z,17.50
2019-05-18T08:37:10.397Z,17.40
2019-05-18T08:39:36.683Z,17.70
2019-05-18T08:42:03.024Z,17.70
2019-05-18T08:44:29.300Z,17.10
2019-05-18T08:46:55.547Z,16.80
2019-05-18T08:49:21.893Z,16.20
2019-05-18T08:51:48.156Z,16.20
2019-05-18T08:54:14.412Z,16.70
2019-05-18T08:56:40.702Z,17.00
2019-05-18T08:59:07.255Z,17.10
2019-05-18T09:01:33.879Z,16.90
2019-05-18T09:04:00.178Z,17.40
2019-05-18T09:06:26.703Z,17.40
2019-05-18T09:08:54.184Z,19.10
2019-05-18T09:11:20.415Z,18.90
2019-05-18T09:13:46.690Z,19.20
2019-05-18T09:16:12.969Z,20.70
2019-05-18T09:18:39.231Z,20.50
2019-05-18T09:21:05.487Z,21.10
2019-05-18T09:23:32.040Z,21.20
2019-05-18T09:25:58.628Z,20.30
2019-05-18T09:28:25.212Z,19.80
2019-05-18T09:30:51.982Z,19.10
2019-05-18T09:33:18.612Z,19.40
2019-05-18T09:35:44.886Z,19.70
2019-05-18T09:38:11.122Z,19.90
2019-05-18T09:40:37.638Z,19.70
2019-05-18T09:43:04.267Z,19.20
2019-05-18T09:45:30.519Z,19.40
2019-05-18T09:47:57.137Z,19.80
2019-05-18T09:50:23.750Z,18.90
2019-05-18T09:52:50.512Z,19.70
2019-05-18T09:55:17.271Z,20.90
2019-05-18T09:57:43.667Z,21.30
2019-05-18T10:00:12.319Z,21.00
2019-05-18T10:02:38.571Z,20.90
2019-05-18T10:05:05.530Z,20.60
2019-05-18T10:07:32.075Z,20.40
2019-05-18T10:09:58.379Z,20.60
2019-05-18T10:12:24.944Z,20.60
2019-05-18T10:14:51.399Z,21.40
2019-05-18T10:17:17.995Z,23.00
2019-05-18T10:19:44.281Z,24.00
2019-05-18T10:22:10.571Z,25.00
2019-05-18T10:24:36.838Z,26.50
2019-05-18T10:27:03.249Z,26.90
2019-05-18T10:29:29.488Z,29.20
2019-05-18T10:31:55.891Z,29.00
2019-05-18T10:34:22.262Z,28.30
2019-05-18T10:36:48.782Z,29.10
2019-05-18T10:39:15.347Z,29.80
2019-05-18T10:41:41.919Z,30.80
2019-05-18T10:44:08.177Z,32.50
2019-05-18T10:46:34.664Z,32.70
2019-05-18T10:49:00.886Z,30.60
2019-05-18T10:51:27.334Z,30.40
2019-05-18T10:53:53.575Z,30.70
2019-05-18T10:56:19.854Z,30.00
2019-05-18T10:58:46.207Z,29.80
2019-05-18T11:01:12.467Z,31.70
2019-05-18T11:03:38.799Z,31.20
2019-05-18T11:06:05.516Z,31.20
2019-05-18T11:08:31.714Z,29.30
2019-05-18T11:10:58.575Z,29.70
2019-05-18T11:13:26.189Z,31.00
2019-05-18T11:15:53.062Z,31.10
2019-05-18T11:18:19.447Z,30.40
2019-05-18T11:20:46.144Z,28.70
2019-05-18T11:23:12.716Z,27.40
2019-05-18T11:25:40.429Z,26.70
2019-05-18T11:28:06.831Z,27.60
2019-05-18T11:30:33.599Z,27.90
2019-05-18T11:33:00.175Z,27.40
2019-05-18T11:35:26.876Z,28.50
2019-05-18T11:37:53.408Z,26.40
2019-05-18T11:40:20.612Z,26.00
2019-05-18T11:42:47.099Z,25.60
2019-05-18T11:45:18.054Z,26.30
2019-05-18T11:47:44.572Z,27.30
2019-05-18T11:50:11.677Z,28.30
2019-05-18T11:52:38.293Z,27.60
2019-05-18T11:55:05.753Z,26.00
2019-05-18T11:57:33.109Z,24.30
2019-05-18T11:59:59.707Z,24.50
2019-05-18T12:02:25.955Z,26.30
2019-05-18T12:04:52.586Z,25.70
2019-05-18T12:07:20.008Z,25.50
2019-05-18T12:09:46.683Z,25.80
2019-05-18T12:12:13.276Z,27.20
2019-05-18T12:14:39.631Z,27.90
2019-05-18T12:17:06.300Z,27.70
2019-05-18T12:19:32.783Z,25.60
2019-05-18T12:21:59.494Z,24.80
2019-05-18T12:24:26.061Z,26.30
2019-05-18T12:26:52.755Z,26.40
2019-05-18T12:29:19.186Z,27.40
2019-05-18T12:31:45.563Z,27.60
2019-05-18T12:34:11.949Z,27.00
2019-05-18T12:36:38.451Z,27.10
2019-05-18T12:39:05.538Z,27.50
2019-05-18T12:41:31.934Z,28.50
2019-05-18T12:43:59.237Z,28.80
2019-05-18T12:46:26.031Z,28.90
2019-05-18T12:48:52.675Z,27.40
2019-05-18T12:51:18.934Z,26.70
2019-05-18T12:53:45.401Z,24.50
2019-05-18T12:56:11.981Z,23.80
2019-05-18T12:58:40.374Z,23.00
2019-05-18T13:01:07.023Z,23.50
2019-05-18T13:03:33.498Z,22.60
2019-05-18T13:06:00.138Z,22.70
2019-05-18T13:08:26.435Z,22.90
2019-05-18T13:10:53.007Z,23.30
2019-05-18T13:13:19.806Z,23.70
2019-05-18T13:15:46.298Z,23.60
2019-05-18T13:18:12.935Z,23.50
2019-05-18T13:20:39.586Z,23.50
2019-05-18T13:23:06.219Z,23.20
2019-05-18T13:25:32.859Z,22.90
2019-05-18T13:27:59.502Z,23.00
2019-05-18T13:30:26.354Z,23.00
2019-05-18T13:32:52.789Z,22.50
2019-05-18T13:35:19.712Z,22.40
2019-05-18T13:37:47.296Z,22.40
2019-05-18T13:40:14.912Z,22.10
2019-05-18T13:42:41.476Z,21.90
2019-05-18T13:45:09.106Z,21.40
2019-05-18T13:47:35.596Z,20.90
2019-05-18T13:50:02.765Z,20.50
2019-05-18T13:52:29.171Z,20.60
2019-05-18T13:55:03.587Z,20.90
2019-05-18T13:57:24.070Z,21.80
2019-05-18T13:59:50.741Z,22.40
2019-05-18T14:02:17.351Z,22.90
2019-05-18T14:04:44.006Z,23.40
2019-05-18T14:07:10.617Z,23.30
2019-05-18T14:09:36.898Z,23.60
2019-05-18T14:12:03.485Z,24.00
2019-05-18T14:14:30.246Z,23.70
2019-05-18T14:16:56.762Z,23.40
2019-05-18T14:19:23.486Z,22.50
2019-05-18T14:21:50.029Z,22.10
2019-05-18T14:24:16.685Z,21.90
2019-05-18T14:26:43.334Z,21.80
2019-05-18T14:29:09.979Z,21.70
2019-05-18T14:31:36.877Z,21.60
2019-05-18T14:34:03.475Z,21.60
2019-05-18T14:36:29.915Z,21.20
2019-05-18T14:38:56.840Z,21.20
2019-05-18T14:41:23.571Z,21.20
2019-05-18T14:43:50.238Z,21.40
2019-05-18T14:46:16.477Z,21.60
2019-05-18T14:48:43.065Z,22.00
2019-05-18T14:51:09.771Z,22.10
2019-05-18T14:53:36.454Z,22.30
2019-05-18T14:56:03.110Z,22.50
2019-05-18T14:58:29.723Z,21.90
2019-05-18T15:00:56.299Z,21.60
2019-05-18T15:03:22.888Z,21.70
2019-05-18T15:05:49.158Z,21.50
2019-05-18T15:08:15.901Z,21.70
2019-05-18T15:10:42.198Z,22.10
2019-05-18T15:13:08.670Z,22.10
2019-05-18T15:15:35.287Z,21.80
2019-05-18T15:18:01.521Z,21.20
2019-05-18T15:20:27.781Z,21.50
2019-05-18T15:22:54.875Z,22.10
2019-05-18T15:25:22.158Z,22.90
2019-05-18T15:27:49.323Z,23.20
2019-05-18T15:30:16.682Z,23.50
2019-05-18T15:32:43.727Z,23.50
2019-05-18T15:35:10.612Z,23.40
2019-05-18T15:37:38.565Z,23.30
2019-05-18T15:40:06.515Z,23.50
2019-05-18T15:42:33.459Z,23.30
2019-05-18T15:45:00.512Z,23.50
2019-05-18T15:47:27.640Z,23.70
2019-05-18T15:49:56.088Z,23.60
2019-05-18T15:52:25.285Z,22.60
2019-05-18T15:54:53.253Z,21.60
2019-05-18T15:57:20.098Z,21.00
2019-05-18T15:59:46.997Z,20.50
2019-05-18T16:02:14.093Z,19.80
2019-05-18T16:04:42.304Z,19.50
2019-05-18T16:07:10.259Z,19.10
2019-05-18T16:09:37.408Z,18.80
2019-05-18T16:12:04.589Z,18.50
2019-05-18T16:14:31.489Z,18.30
2019-05-18T16:17:00.836Z,18.10
2019-05-18T16:19:28.948Z,18.00
2019-05-18T16:21:59.015Z,18.00
2019-05-18T16:24:25.831Z,18.00
2019-05-18T16:26:52.806Z,18.30
2019-05-18T16:29:21.190Z,18.40
2019-05-18T16:31:49.373Z,18.40
2019-05-18T16:34:16.421Z,18.40
2019-05-18T16:36:43.368Z,18.70
2019-05-18T16:39:10.607Z,18.90
2019-05-18T16:41:36.836Z,18.90
2019-05-18T16:44:03.557Z,19.00
2019-05-18T16:46:29.838Z,19.10
2019-05-18T16:48:56.274Z,19.30
2019-05-18T16:51:22.486Z,19.30
2019-05-18T16:53:50.276Z,19.40
2019-05-18T16:56:16.854Z,19.30
2019-05-18T16:58:43.117Z,19.40
2019-05-18T17:01:09.462Z,19.50
2019-05-18T17:03:36.080Z,19.60
2019-05-18T17:06:02.790Z,19.60
2019-05-18T17:08:29.555Z,19.80
2019-05-18T17:10:55.788Z,20.00
2019-05-18T17:13:22.026Z,20.00
2019-05-18T17:15:48.286Z,19.90
2019-05-18T17:18:14.612Z,20.00
2019-05-18T17:20:42.075Z,20.00
2019-05-18T17:23:08.303Z,20.00
2019-05-18T17:25:34.578Z,20.00
2019-05-18T17:28:00.815Z,20.10
2019-05-18T17:30:27.443Z,20.30
2019-05-18T17:32:53.795Z,20.30
2019-05-18T17:35:20.068Z,20.30
2019-05-18T17:37:46.436Z,20.20
2019-05-18T17:40:13.386Z,20.20
2019-05-18T17:42:39.632Z,20.10
2019-05-18T17:45:07.124Z,20.20
2019-05-18T17:47:33.585Z,20.00
2019-05-18T17:49:59.869Z,20.00
2019-05-18T17:52:26.116Z,20.00
2019-05-18T17:54:52.349Z,20.00
2019-05-18T17:57:18.613Z,20.00
2019-05-18T17:59:44.850Z,19.90
2019-05-18T18:02:11.166Z,20.00
2019-05-18T18:04:37.458Z,20.10
2019-05-18T18:07:03.815Z,20.20
2019-05-18T18:09:30.492Z,20.20
2019-05-18T18:11:56.815Z,20.20
2019-05-18T18:14:23.251Z,20.30
2019-05-18T18:16:49.483Z,20.30
2019-05-18T18:19:15.882Z,20.20
2019-05-18T18:21:43.271Z,20.10
2019-05-18T18:24:09.517Z,19.90
2019-05-18T18:26:35.899Z,19.80
2019-05-18T18:29:04.232Z,19.90
2019-05-18T18:31:30.185Z,19.60
2019-05-18T18:33:56.512Z,19.30
2019-05-18T18:36:22.806Z,19.30
2019-05-18T18:38:49.203Z,19.40
2019-05-18T18:41:15.431Z,19.30
2019-05-18T18:43:41.701Z,19.10
2019-05-18T18:46:07.836Z,19.10
2019-05-18T18:48:34.118Z,19.20
2019-05-18T18:51:00.350Z,19.00
2019-05-18T18:53:27.006Z,18.80
2019-05-18T18:55:53.264Z,18.60
2019-05-18T18:58:19.502Z,18.60
2019-05-18T19:00:45.875Z,18.60
2019-05-18T19:03:12.106Z,18.50
2019-05-18T19:05:39.383Z,18.40
2019-05-18T19:08:06.026Z,18.50
2019-05-18T19:10:32.251Z,18.50
2019-05-18T19:12:58.694Z,18.40
2019-05-18T19:15:25.093Z,18.60
2019-05-18T19:17:51.477Z,18.50
2019-05-18T19:20:17.866Z,18.60
2019-05-18T19:22:44.158Z,18.50
2019-05-18T19:25:10.488Z,18.40
2019-05-18T19:27:36.711Z,18.50
2019-05-18T19:30:09.756Z,18.30
2019-05-18T19:32:34.624Z,17.90
2019-05-18T19:35:00.954Z,17.90
2019-05-18T19:37:27.279Z,17.90
2019-05-18T19:39:53.596Z,17.80
2019-05-18T19:42:19.841Z,17.70
2019-05-18T19:44:46.098Z,17.70
2019-05-18T19:47:12.372Z,17.80
2019-05-18T19:49:38.916Z,17.80
2019-05-18T19:52:05.182Z,17.70
2019-05-18T19:54:31.429Z,17.70
2019-05-18T19:56:57.726Z,17.80
2019-05-18T19:59:24.051Z,17.90
2019-05-18T20:01:50.302Z,17.70
2019-05-18T20:04:16.581Z,17.60
2019-05-18T20:06:42.800Z,17.80
2019-05-18T20:09:09.075Z,17.80
2019-05-18T20:11:35.292Z,17.60
2019-05-18T20:14:01.653Z,17.50
2019-05-18T20:16:27.922Z,17.50
2019-05-18T20:18:54.524Z,17.30
2019-05-18T20:21:20.774Z,17.30
2019-05-18T20:23:47.031Z,17.30
2019-05-18T20:26:13.521Z,17.20
2019-05-18T20:28:39.833Z,17.20
2019-05-18T20:31:06.072Z,16.90
2019-05-18T20:33:32.659Z,16.70
2019-05-18T20:35:58.889Z,16.70
2019-05-18T20:38:25.145Z,16.80
2019-05-18T20:40:51.402Z,16.80
2019-05-18T20:43:17.620Z,16.70
2019-05-18T20:45:44.230Z,16.60
2019-05-18T20:48:10.481Z,16.40
2019-05-18T20:50:36.738Z,16.30
2019-05-18T20:53:03.270Z,16.20
2019-05-18T20:55:29.605Z,16.40
2019-05-18T20:57:59.042Z,16.60
2019-05-18T21:00:25.666Z,16.60
2019-05-18T21:02:52.301Z,16.60
2019-05-18T21:05:18.634Z,16.40
2019-05-18T21:07:44.903Z,16.40
2019-05-18T21:10:11.526Z,16.30
2019-05-18T21:12:37.726Z,16.30
2019-05-18T21:15:06.620Z,16.20
2019-05-18T21:17:32.825Z,16.20
2019-05-18T21:19:59.071Z,16.30
2019-05-18T21:22:25.282Z,16.50
2019-05-18T21:24:51.589Z,16.40
2019-05-18T21:27:17.885Z,16.30
2019-05-18T21:29:44.205Z,16.20
2019-05-18T21:32:11.566Z,16.30
2019-05-18T21:34:37.789Z,16.20
2019-05-18T21:37:04.022Z,16.10
2019-05-18T21:39:30.312Z,16.00
2019-05-18T21:41:56.552Z,16.10
2019-05-18T21:44:23.124Z,16.00
2019-05-18T21:46:49.333Z,16.00
2019-05-18T21:49:15.553Z,16.00
2019-05-18T21:51:41.794Z,16.10
2019-05-18T21:54:08.021Z,16.00
2019-05-18T21:56:34.265Z,16.00
2019-05-18T21:59:11.200Z,16.00
2019-05-18T22:01:28.633Z,16.20
2019-05-18T22:03:54.858Z,16.40
2019-05-18T22:06:21.177Z,16.20
2019-05-18T22:08:47.459Z,16.40
2019-05-18T22:11:13.689Z,16.60
2019-05-18T22:13:39.925Z,16.50
2019-05-18T22:16:06.133Z,16.50
2019-05-18T22:18:32.821Z,16.50
2019-05-18T22:20:59.392Z,16.40
2019-05-18T22:23:25.637Z,16.40
2019-05-18T22:25:51.885Z,16.30
2019-05-18T22:28:18.152Z,16.30
2019-05-18T22:30:44.361Z,16.20
2019-05-18T22:33:10.686Z,16.30
2019-05-18T22:35:36.905Z,16.20
2019-05-18T22:38:03.288Z,15.90
2019-05-18T22:40:30.068Z,16.00
2019-05-18T22:42:56.317Z,15.90
2019-05-18T22:45:22.537Z,16.00
2019-05-18T22:47:48.762Z,16.00
2019-05-18T22:50:15.402Z,15.90
2019-05-18T22:52:41.631Z,15.50
2019-05-18T22:55:08.265Z,15.50
2019-05-18T22:57:34.487Z,15.40
2019-05-18T23:00:00.685Z,15.30
2019-05-18T23:02:28.402Z,15.30
2019-05-18T23:04:54.789Z,15.50
2019-05-18T23:07:21.065Z,15.40
2019-05-18T23:09:47.281Z,15.50
2019-05-18T23:12:13.529Z,15.40
2019-05-18T23:14:39.784Z,15.60
2019-05-18T23:17:06.049Z,15.50
2019-05-18T23:19:32.323Z,15.20
2019-05-18T23:21:58.545Z,15.30
2019-05-18T23:24:25.052Z,15.50
2019-05-18T23:26:51.273Z,15.70
2019-05-18T23:29:17.528Z,15.80
2019-05-18T23:31:43.761Z,15.70
2019-05-18T23:34:09.976Z,15.70
2019-05-18T23:36:36.263Z,15.70
2019-05-18T23:39:04.741Z,15.80
2019-05-18T23:41:30.980Z,15.80
2019-05-18T23:43:57.240Z,15.90
2019-05-18T23:46:23.480Z,15.80
2019-05-18T23:48:49.871Z,15.80
2019-05-18T23:51:16.219Z,15.80
2019-05-18T23:53:42.459Z,15.80
2019-05-18T23:56:08.915Z,15.80
2019-05-18T23:58:35.155Z,15.70
